createdAt,value
2023-04-07T00:01:32.692Z,4.65
2023-04-07T00:03:59.684Z,4.66
2023-04-07T00:06:27.558Z,4.52
2023-04-07T00:08:54.578Z,4.56
2023-04-07T00:11:21.331Z,4.60
2023-04-07T00:13:47.996Z,4.56
2023-04-07T00:16:14.785Z,4.66
2023-04-07T00:18:41.720Z,4.62
2023-04-07T00:21:08.418Z,4.64
2023-04-07T00:23:35.210Z,4.63
2023-04-07T00:26:01.924Z,4.61
2023-04-07T00:28:28.590Z,4.56
2023-04-07T00:30:55.358Z,4.60
2023-04-07T00:33:22.154Z,4.53
2023-04-07T00:35:48.851Z,4.45
2023-04-07T00:38:15.605Z,4.41
2023-04-07T00:40:42.425Z,4.42
2023-04-07T00:43:09.117Z,4.45
2023-04-07T00:45:36.970Z,4.53
2023-04-07T00:48:04.710Z,4.33
2023-04-07T00:50:31.380Z,4.43
2023-04-07T00:52:58.140Z,4.37
2023-04-07T00:55:24.915Z,4.29
2023-04-07T00:57:51.946Z,4.10
2023-04-07T01:00:18.761Z,4.24
2023-04-07T01:02:54.292Z,4.02
2023-04-07T01:05:46.865Z,4.11
2023-04-07T01:08:16.168Z,4.09
2023-04-07T01:11:08.852Z,4.19
2023-04-07T01:14:02.010Z,4.19
2023-04-07T01:16:35.889Z,4.11
2023-04-07T01:19:14.185Z,3.90
2023-04-07T01:21:43.497Z,4.02
2023-04-07T01:24:47.851Z,3.97
2023-04-07T01:27:21.920Z,3.87
2023-04-07T01:29:50.696Z,3.80
2023-04-07T01:32:20.401Z,3.87
2023-04-07T01:34:49.414Z,3.98
2023-04-07T01:37:16.647Z,3.95
2023-04-07T01:39:43.389Z,4.02
2023-04-07T01:42:11.044Z,3.87
2023-04-07T01:44:37.808Z,4.02
2023-04-07T01:47:04.969Z,3.91
2023-04-07T01:49:32.439Z,3.79
2023-04-07T01:51:59.778Z,3.81
2023-04-07T01:54:27.431Z,3.88
2023-04-07T01:56:54.224Z,3.93
2023-04-07T01:59:21.014Z,3.73
2023-04-07T02:01:48.417Z,3.64
2023-04-07T02:04:26.350Z,3.90
2023-04-07T02:06:59.824Z,4.00
2023-04-07T02:09:30.700Z,3.98
2023-04-07T02:11:58.911Z,4.05
2023-04-07T02:14:25.816Z,4.06
2023-04-07T02:16:53.295Z,4.07
2023-04-07T02:19:20.192Z,4.00
2023-04-07T02:21:47.388Z,3.98
2023-04-07T02:24:14.148Z,3.87
2023-04-07T02:26:41.104Z,3.92
2023-04-07T02:29:08.063Z,3.83
2023-04-07T02:31:34.878Z,3.82
2023-04-07T02:34:01.567Z,4.04
2023-04-07T02:36:28.240Z,3.90
2023-04-07T02:38:55.036Z,3.92
2023-04-07T02:41:21.668Z,3.92
2023-04-07T02:43:48.435Z,4.00
2023-04-07T02:46:16.433Z,3.95
2023-04-07T02:48:43.364Z,3.98
2023-04-07T02:51:10.004Z,3.95
2023-04-07T02:53:36.694Z,3.86
2023-04-07T02:56:03.422Z,3.92
2023-04-07T02:58:30.067Z,3.87
2023-04-07T03:00:56.768Z,3.96
2023-04-07T03:03:23.842Z,3.90
2023-04-07T03:05:50.675Z,3.85
2023-04-07T03:08:17.391Z,3.61
2023-04-07T03:10:44.514Z,3.77
2023-04-07T03:13:13.004Z,3.67
2023-04-07T03:15:40.132Z,3.72
2023-04-07T03:18:06.930Z,3.70
2023-04-07T03:20:33.625Z,3.67
2023-04-07T03:23:00.688Z,3.64
2023-04-07T03:25:27.686Z,3.60
2023-04-07T03:27:54.505Z,3.61
2023-04-07T03:30:21.197Z,3.53
2023-04-07T03:32:47.849Z,3.58
2023-04-07T03:35:14.514Z,3.38
2023-04-07T03:37:41.139Z,3.31
2023-04-07T03:40:08.306Z,3.28
2023-04-07T03:42:34.952Z,3.27
2023-04-07T03:45:01.924Z,3.22
2023-04-07T03:47:28.650Z,3.23
2023-04-07T03:49:55.583Z,3.30
2023-04-07T03:52:22.173Z,3.22
2023-04-07T03:54:48.774Z,3.26
2023-04-07T03:57:15.528Z,3.25
2023-04-07T03:59:42.183Z,3.17
2023-04-07T04:02:09.021Z,3.30
2023-04-07T04:04:36.129Z,3.20
2023-04-07T04:07:23.860Z,3.29
2023-04-07T04:09:50.502Z,3.39
2023-04-07T04:12:17.596Z,3.35
2023-04-07T04:14:44.204Z,3.54
2023-04-07T04:17:11.128Z,3.66
2023-04-07T04:19:37.850Z,3.83
2023-04-07T04:22:04.644Z,3.56
2023-04-07T04:24:31.261Z,3.69
2023-04-07T04:26:57.947Z,3.86
2023-04-07T04:29:24.597Z,3.89
2023-04-07T04:31:51.534Z,3.82
2023-04-07T04:34:18.164Z,4.03
2023-04-07T04:36:44.884Z,3.71
2023-04-07T04:39:11.656Z,4.09
2023-04-07T04:41:38.337Z,3.82
2023-04-07T04:44:05.153Z,3.90
2023-04-07T04:46:32.053Z,3.41
2023-04-07T04:48:58.916Z,3.81
2023-04-07T04:51:26.417Z,3.95
2023-04-07T04:53:53.376Z,4.11
2023-04-07T04:56:21.731Z,3.63
2023-04-07T04:58:48.410Z,3.47
2023-04-07T05:01:15.211Z,3.94
2023-04-07T05:03:42.285Z,3.75
2023-04-07T05:06:09.243Z,3.45
2023-04-07T05:08:35.994Z,3.62
2023-04-07T05:11:02.625Z,3.64
2023-04-07T05:13:31.137Z,3.95
2023-04-07T05:15:57.964Z,3.79
2023-04-07T05:18:24.741Z,3.83
2023-04-07T05:20:51.404Z,3.58
2023-04-07T05:23:18.065Z,3.76
2023-04-07T05:25:44.681Z,3.94
2023-04-07T05:28:11.607Z,3.96
2023-04-07T05:30:38.288Z,3.88
2023-04-07T05:33:05.040Z,3.85
2023-04-07T05:35:32.312Z,4.19
2023-04-07T05:37:58.984Z,4.11
2023-04-07T05:40:25.738Z,4.07
2023-04-07T05:42:52.365Z,3.89
2023-04-07T05:45:19.045Z,4.37
2023-04-07T05:47:50.058Z,4.13
2023-04-07T05:50:17.824Z,3.98
2023-04-07T05:52:44.494Z,4.35
2023-04-07T05:55:11.231Z,4.58
2023-04-07T05:57:37.952Z,4.59
2023-04-07T06:00:04.984Z,4.48
2023-04-07T06:02:31.826Z,4.82
2023-04-07T06:04:58.706Z,4.74
2023-04-07T06:07:25.764Z,5.06
2023-04-07T06:09:52.406Z,4.93
2023-04-07T06:12:19.046Z,4.73
2023-04-07T06:14:52.725Z,4.89
2023-04-07T06:17:19.474Z,4.58
2023-04-07T06:19:46.573Z,4.41
2023-04-07T06:22:13.332Z,4.64
2023-04-07T06:24:40.081Z,4.92
2023-04-07T06:27:07.856Z,5.09
2023-04-07T06:29:34.905Z,5.48
2023-04-07T06:32:02.516Z,5.19
2023-04-07T06:34:29.211Z,4.75
2023-04-07T06:36:58.090Z,5.25
2023-04-07T06:39:27.701Z,5.54
2023-04-07T06:41:54.423Z,5.29
2023-04-07T06:44:21.133Z,5.42
2023-04-07T06:46:50.518Z,5.24
2023-04-07T06:49:17.270Z,5.03
2023-04-07T06:51:43.874Z,5.44
2023-04-07T06:54:14.090Z,5.18
2023-04-07T06:56:42.154Z,5.38
2023-04-07T06:59:09.161Z,5.26
2023-04-07T07:01:36.167Z,5.19
2023-04-07T07:04:03.026Z,5.00
2023-04-07T07:06:29.714Z,5.32
2023-04-07T07:08:56.400Z,5.68
2023-04-07T07:11:23.136Z,5.69
2023-04-07T07:13:50.045Z,5.45
2023-04-07T07:16:17.063Z,5.76
2023-04-07T07:18:43.870Z,5.50
2023-04-07T07:21:10.939Z,5.58
2023-04-07T07:23:37.561Z,6.12
2023-04-07T07:26:04.657Z,5.96
2023-04-07T07:28:31.300Z,5.58
2023-04-07T07:30:58.226Z,6.07
2023-04-07T07:33:24.997Z,6.31
2023-04-07T07:35:51.719Z,6.28
2023-04-07T07:38:18.427Z,6.07
2023-04-07T07:40:45.169Z,6.41
2023-04-07T07:43:12.446Z,6.15
2023-04-07T07:45:39.087Z,6.25
2023-04-07T07:48:05.689Z,5.88
2023-04-07T07:50:32.348Z,5.83
2023-04-07T07:52:59.456Z,5.81
2023-04-07T07:55:26.347Z,6.17
2023-04-07T07:57:53.055Z,6.47
2023-04-07T08:00:19.864Z,6.57
2023-04-07T08:02:46.603Z,6.29
2023-04-07T08:05:13.334Z,6.34
2023-04-07T08:07:40.082Z,6.44
2023-04-07T08:10:07.098Z,6.62
2023-04-07T08:12:33.753Z,6.70
2023-04-07T08:15:00.555Z,6.87
2023-04-07T08:17:27.269Z,6.72
2023-04-07T08:19:53.892Z,7.14
2023-04-07T08:22:21.185Z,7.02
2023-04-07T08:24:47.881Z,7.20
2023-04-07T08:27:14.683Z,7.69
2023-04-07T08:29:41.329Z,7.89
2023-04-07T08:32:07.978Z,7.73
2023-04-07T08:34:34.734Z,7.27
2023-04-07T08:37:01.616Z,7.48
2023-04-07T08:39:28.333Z,7.47
2023-04-07T08:41:55.495Z,7.74
2023-04-07T08:44:22.814Z,7.52
2023-04-07T08:46:51.512Z,7.80
2023-04-07T08:49:18.738Z,7.45
2023-04-07T08:51:49.665Z,7.83
2023-04-07T08:54:19.174Z,7.71
2023-04-07T08:56:46.035Z,8.01
2023-04-07T08:59:14.753Z,8.29
2023-04-07T09:01:42.276Z,7.78
2023-04-07T09:04:10.597Z,8.02
2023-04-07T09:06:38.386Z,8.59
2023-04-07T09:09:08.519Z,8.68
2023-04-07T09:11:37.258Z,8.43
2023-04-07T09:14:03.944Z,8.57
2023-04-07T09:16:33.484Z,8.87
2023-04-07T09:19:00.332Z,9.10
2023-04-07T09:21:27.492Z,9.08
2023-04-07T09:23:54.299Z,9.42
2023-04-07T09:26:26.040Z,8.92
2023-04-07T09:28:57.560Z,8.92
2023-04-07T09:31:27.040Z,8.39
2023-04-07T09:33:53.727Z,9.16
2023-04-07T09:36:20.573Z,9.40
2023-04-07T09:38:48.357Z,9.78
2023-04-07T09:41:19.322Z,9.79
2023-04-07T09:43:47.097Z,10.03
2023-04-07T09:46:19.171Z,9.06
2023-04-07T09:48:46.765Z,9.22
2023-04-07T09:51:14.407Z,9.38
2023-04-07T09:53:45.181Z,9.36
2023-04-07T09:56:12.570Z,9.74
2023-04-07T09:58:42.741Z,9.95
2023-04-07T10:01:10.852Z,9.69
2023-04-07T10:03:38.306Z,10.17
2023-04-07T10:06:06.904Z,9.46
2023-04-07T10:08:36.540Z,9.73
2023-04-07T10:11:03.811Z,9.48
2023-04-07T10:13:31.573Z,9.42
2023-04-07T10:15:59.520Z,9.50
2023-04-07T10:18:31.000Z,9.64
2023-04-07T10:21:01.999Z,9.90
2023-04-07T10:23:34.915Z,10.15
2023-04-07T10:26:02.602Z,10.28
2023-04-07T10:28:31.175Z,10.03
2023-04-07T10:30:58.461Z,10.14
2023-04-07T10:33:45.771Z,10.67
2023-04-07T10:36:13.385Z,10.21
2023-04-07T10:38:40.136Z,9.91
2023-04-07T10:41:32.107Z,9.79
2023-04-07T10:44:01.270Z,10.44
2023-04-07T10:46:52.081Z,10.50
2023-04-07T10:49:19.169Z,10.81
2023-04-07T10:52:12.024Z,10.68
2023-04-07T10:54:39.688Z,10.42
2023-04-07T10:57:11.787Z,10.46
2023-04-07T11:00:03.020Z,10.01
2023-04-07T11:02:31.069Z,9.87
2023-04-07T11:04:57.858Z,9.96
2023-04-07T11:07:43.997Z,10.53
2023-04-07T11:10:12.473Z,10.52
2023-04-07T11:12:39.120Z,11.14
2023-04-07T11:15:24.774Z,10.97
2023-04-07T11:18:09.854Z,11.47
2023-04-07T11:20:58.601Z,11.60
2023-04-07T11:23:27.204Z,11.95
2023-04-07T11:26:03.224Z,11.91
2023-04-07T11:28:30.576Z,11.59
2023-04-07T11:30:58.597Z,11.94
2023-04-07T11:33:30.772Z,11.75
2023-04-07T11:36:00.005Z,11.87
2023-04-07T11:38:36.238Z,12.06
2023-04-07T11:41:11.751Z,11.59
2023-04-07T11:43:39.991Z,11.37
2023-04-07T11:46:09.813Z,11.32
2023-04-07T11:48:39.772Z,11.15
2023-04-07T11:51:07.119Z,11.02
2023-04-07T11:53:38.281Z,10.53
2023-04-07T11:56:10.819Z,10.63
2023-04-07T11:58:37.749Z,10.53
2023-04-07T12:01:09.268Z,10.38
2023-04-07T12:03:37.459Z,10.50
2023-04-07T12:06:04.608Z,10.79
2023-04-07T12:08:42.132Z,10.75
2023-04-07T12:11:09.471Z,10.49
2023-04-07T12:13:37.317Z,10.74
2023-04-07T12:16:04.592Z,11.04
2023-04-07T12:18:31.335Z,10.94
2023-04-07T12:20:59.276Z,10.57
2023-04-07T12:23:26.384Z,10.33
2023-04-07T12:25:53.128Z,10.86
2023-04-07T12:28:19.930Z,10.65
2023-04-07T12:30:46.571Z,10.53
2023-04-07T12:33:13.347Z,10.76
2023-04-07T12:35:40.652Z,11.03
2023-04-07T12:38:08.367Z,10.67
2023-04-07T12:40:36.075Z,10.85
2023-04-07T12:43:03.082Z,11.25
2023-04-07T12:45:31.286Z,11.19
2023-04-07T12:47:58.362Z,11.38
2023-04-07T12:50:25.471Z,11.47
2023-04-07T12:52:52.388Z,11.13
2023-04-07T12:55:19.017Z,11.19
2023-04-07T12:57:45.805Z,11.21
2023-04-07T13:00:13.080Z,11.04
2023-04-07T13:02:40.021Z,10.94
2023-04-07T13:05:07.415Z,11.36
2023-04-07T13:07:36.392Z,11.59
2023-04-07T13:10:03.398Z,11.90
2023-04-07T13:12:30.140Z,11.55
2023-04-07T13:15:00.227Z,11.57
2023-04-07T13:17:29.099Z,11.62
2023-04-07T13:19:56.494Z,11.42
2023-04-07T13:22:24.659Z,11.53
2023-04-07T13:24:51.602Z,11.49
2023-04-07T13:27:18.318Z,11.33
2023-04-07T13:29:45.043Z,11.58
2023-04-07T13:32:15.512Z,11.95
2023-04-07T13:34:42.349Z,12.09
2023-04-07T13:37:09.023Z,12.29
2023-04-07T13:39:35.698Z,12.12
2023-04-07T13:42:02.442Z,12.28
2023-04-07T13:44:29.510Z,12.09
2023-04-07T13:46:57.788Z,11.89
2023-04-07T13:49:24.686Z,11.68
2023-04-07T13:51:51.339Z,11.65
2023-04-07T13:54:18.604Z,11.65
2023-04-07T13:56:45.331Z,11.59
2023-04-07T13:59:12.145Z,11.58
2023-04-07T14:01:39.469Z,11.26
2023-04-07T14:04:06.725Z,11.43
2023-04-07T14:06:33.721Z,11.37
2023-04-07T14:09:00.427Z,11.51
2023-04-07T14:11:27.364Z,11.51
2023-04-07T14:13:56.569Z,11.46
2023-04-07T14:16:23.396Z,11.57
2023-04-07T14:18:51.710Z,11.72
2023-04-07T14:21:18.429Z,11.84
2023-04-07T14:23:45.133Z,12.11
2023-04-07T14:26:12.835Z,11.88
2023-04-07T14:28:39.857Z,11.70
2023-04-07T14:31:06.776Z,11.46
2023-04-07T14:33:33.395Z,11.24
2023-04-07T14:36:00.021Z,11.38
2023-04-07T14:38:27.385Z,11.39
2023-04-07T14:40:54.142Z,11.53
2023-04-07T14:43:24.048Z,11.89
2023-04-07T14:45:51.056Z,12.18
2023-04-07T14:48:17.811Z,12.06
2023-04-07T14:50:44.543Z,12.03
2023-04-07T14:53:11.386Z,11.85
2023-04-07T14:55:38.125Z,11.95
2023-04-07T14:58:04.811Z,11.68
2023-04-07T15:00:31.451Z,11.58
2023-04-07T15:02:58.444Z,11.48
2023-04-07T15:05:28.021Z,11.74
2023-04-07T15:07:54.788Z,11.95
2023-04-07T15:10:21.592Z,12.11
2023-04-07T15:12:49.004Z,12.13
2023-04-07T15:15:16.322Z,11.97
2023-04-07T15:17:44.981Z,11.91
2023-04-07T15:20:13.481Z,12.10
2023-04-07T15:22:40.374Z,11.96
2023-04-07T15:25:08.039Z,12.22
2023-04-07T15:27:34.754Z,12.13
2023-04-07T15:30:01.607Z,11.93
2023-04-07T15:32:31.027Z,11.85
2023-04-07T15:34:57.791Z,11.76
2023-04-07T15:37:25.424Z,11.65
2023-04-07T15:39:52.392Z,11.45
2023-04-07T15:42:19.024Z,11.57
2023-04-07T15:44:45.686Z,11.70
2023-04-07T15:47:12.334Z,12.04
2023-04-07T15:49:39.022Z,12.38
2023-04-07T15:52:06.009Z,12.42
2023-04-07T15:54:32.978Z,12.67
2023-04-07T15:56:59.817Z,12.35
2023-04-07T15:59:29.429Z,12.23
2023-04-07T16:01:56.248Z,12.67
2023-04-07T16:04:23.072Z,12.08
2023-04-07T16:06:49.820Z,11.82
2023-04-07T16:09:16.451Z,11.87
2023-04-07T16:11:43.180Z,12.09
2023-04-07T16:14:09.858Z,11.87
2023-04-07T16:16:37.131Z,11.89
2023-04-07T16:19:04.041Z,11.51
2023-04-07T16:21:31.476Z,11.13
2023-04-07T16:23:58.139Z,10.90
2023-04-07T16:26:24.777Z,10.81
2023-04-07T16:28:51.423Z,10.82
2023-04-07T16:31:18.131Z,10.76
2023-04-07T16:33:44.834Z,10.59
2023-04-07T16:36:11.561Z,10.57
2023-04-07T16:38:38.234Z,10.57
2023-04-07T16:41:07.609Z,10.74
2023-04-07T16:43:34.270Z,10.54
2023-04-07T16:46:01.174Z,10.51
2023-04-07T16:48:28.551Z,10.35
2023-04-07T16:50:55.196Z,10.50
2023-04-07T16:53:22.063Z,10.25
2023-04-07T16:55:48.837Z,10.26
2023-04-07T16:58:19.168Z,10.18
2023-04-07T17:00:46.549Z,10.22
2023-04-07T17:03:16.761Z,10.01
2023-04-07T17:05:44.914Z,10.12
2023-04-07T17:08:11.829Z,10.15
2023-04-07T17:10:38.603Z,10.18
2023-04-07T17:13:05.249Z,10.24
2023-04-07T17:15:32.144Z,9.96
2023-04-07T17:17:58.990Z,10.20
2023-04-07T17:20:26.024Z,10.07
2023-04-07T17:22:52.840Z,10.08
2023-04-07T17:25:19.513Z,10.16
2023-04-07T17:27:48.176Z,9.90
2023-04-07T17:30:15.056Z,9.94
2023-04-07T17:32:42.500Z,9.97
2023-04-07T17:35:09.439Z,9.74
2023-04-07T17:37:36.387Z,9.74
2023-04-07T17:40:03.302Z,9.91
2023-04-07T17:42:30.097Z,9.94
2023-04-07T17:44:56.929Z,9.85
2023-04-07T17:47:24.458Z,9.91
2023-04-07T17:49:51.188Z,9.86
2023-04-07T17:52:17.844Z,9.70
2023-04-07T17:54:44.560Z,9.82
2023-04-07T17:57:11.671Z,9.70
2023-04-07T17:59:38.432Z,9.64
2023-04-07T18:02:09.140Z,9.75
2023-04-07T18:04:39.927Z,9.68
2023-04-07T18:07:06.902Z,9.62
2023-04-07T18:09:33.933Z,9.64
2023-04-07T18:12:01.674Z,9.57
2023-04-07T18:14:28.640Z,9.56
2023-04-07T18:16:55.944Z,9.47
2023-04-07T18:19:25.798Z,9.38
2023-04-07T18:21:53.467Z,9.36
2023-04-07T18:24:20.960Z,9.28
2023-04-07T18:26:47.920Z,9.35
2023-04-07T18:29:16.754Z,9.36
2023-04-07T18:31:43.547Z,9.30
2023-04-07T18:34:10.668Z,9.34
2023-04-07T18:36:37.788Z,9.36
2023-04-07T18:39:05.054Z,9.33
2023-04-07T18:41:31.884Z,9.29
2023-04-07T18:43:58.647Z,9.23
2023-04-07T18:46:25.393Z,9.40
2023-04-07T18:48:52.257Z,9.05
2023-04-07T18:51:19.024Z,9.32
2023-04-07T18:53:46.027Z,9.24
2023-04-07T18:56:12.800Z,9.34
2023-04-07T18:58:44.886Z,9.34
2023-04-07T19:01:13.327Z,9.31
2023-04-07T19:03:41.904Z,9.38
2023-04-07T19:06:08.841Z,9.35
2023-04-07T19:08:36.503Z,9.39
2023-04-07T19:11:03.806Z,9.34
2023-04-07T19:13:30.807Z,9.17
2023-04-07T19:15:57.660Z,9.19
2023-04-07T19:18:25.325Z,9.18
2023-04-07T19:20:52.141Z,9.11
2023-04-07T19:23:18.841Z,9.13
2023-04-07T19:25:45.995Z,9.25
2023-04-07T19:28:13.288Z,9.17
2023-04-07T19:30:40.042Z,9.22
2023-04-07T19:33:06.958Z,9.29
2023-04-07T19:35:34.018Z,9.26
2023-04-07T19:38:00.752Z,9.28
2023-04-07T19:40:27.572Z,9.33
2023-04-07T19:42:56.175Z,9.27
2023-04-07T19:45:23.116Z,9.07
2023-04-07T19:47:49.849Z,9.25
2023-04-07T19:50:16.723Z,9.31
2023-04-07T19:52:45.215Z,9.27
2023-04-07T19:55:12.967Z,9.29
2023-04-07T19:57:40.529Z,9.30
2023-04-07T20:00:09.150Z,9.33
2023-04-07T20:02:36.863Z,9.26
2023-04-07T20:05:04.199Z,9.25
2023-04-07T20:07:32.068Z,9.28
2023-04-07T20:09:58.738Z,9.19
2023-04-07T20:12:25.843Z,9.24
2023-04-07T20:14:52.547Z,9.21
2023-04-07T20:17:20.066Z,9.20
2023-04-07T20:19:47.990Z,9.12
2023-04-07T20:22:14.734Z,9.09
2023-04-07T20:24:41.476Z,9.14
2023-04-07T20:27:08.056Z,9.15
2023-04-07T20:29:34.654Z,9.13
2023-04-07T20:32:01.305Z,9.11
2023-04-07T20:34:27.983Z,9.13
2023-04-07T20:36:54.690Z,9.21
2023-04-07T20:39:21.445Z,9.04
2023-04-07T20:41:48.124Z,9.08
2023-04-07T20:44:14.881Z,9.21
2023-04-07T20:46:42.124Z,9.07
2023-04-07T20:49:08.949Z,8.98
2023-04-07T20:51:38.396Z,9.14
2023-04-07T20:54:05.217Z,9.10
2023-04-07T20:56:32.092Z,9.06
2023-04-07T20:58:58.983Z,9.12
2023-04-07T21:01:25.825Z,9.15
2023-04-07T21:03:54.025Z,9.14
2023-04-07T21:06:21.310Z,9.08
2023-04-07T21:08:48.350Z,9.02
2023-04-07T21:11:15.575Z,9.12
2023-04-07T21:13:42.325Z,9.13
2023-04-07T21:16:09.298Z,9.06
2023-04-07T21:18:36.220Z,9.10
2023-04-07T21:21:03.153Z,8.99
2023-04-07T21:23:31.369Z,8.92
2023-04-07T21:26:02.252Z,9.04
2023-04-07T21:28:30.069Z,9.08
2023-04-07T21:30:56.960Z,8.92
2023-04-07T21:33:24.197Z,9.12
2023-04-07T21:35:51.755Z,9.07
2023-04-07T21:38:18.567Z,9.07
2023-04-07T21:40:45.272Z,9.14
2023-04-07T21:43:12.362Z,9.06
2023-04-07T21:45:39.386Z,9.01
2023-04-07T21:48:07.098Z,9.13
2023-04-07T21:50:34.224Z,9.14
2023-04-07T21:53:01.163Z,9.19
2023-04-07T21:55:27.900Z,9.09
2023-04-07T21:57:54.910Z,9.03
2023-04-07T22:00:22.066Z,9.00
2023-04-07T22:02:49.759Z,9.08
2023-04-07T22:05:16.989Z,9.03
2023-04-07T22:07:45.557Z,9.03
2023-04-07T22:10:12.692Z,9.02
2023-04-07T22:12:39.500Z,8.90
2023-04-07T22:15:06.721Z,9.02
2023-04-07T22:17:33.563Z,8.98
2023-04-07T22:20:00.258Z,8.99
2023-04-07T22:22:26.927Z,8.91
2023-04-07T22:24:53.634Z,8.98
2023-04-07T22:27:20.325Z,8.85
2023-04-07T22:29:46.944Z,8.83
2023-04-07T22:32:13.747Z,8.87
2023-04-07T22:34:40.421Z,8.99
2023-04-07T22:37:07.082Z,8.93
2023-04-07T22:39:33.711Z,8.75
2023-04-07T22:42:01.090Z,8.96
2023-04-07T22:44:27.850Z,8.82
2023-04-07T22:46:54.745Z,8.79
2023-04-07T22:49:21.483Z,8.93
2023-04-07T22:51:49.132Z,8.95
2023-04-07T22:54:18.604Z,8.86
2023-04-07T22:56:45.462Z,8.74
2023-04-07T22:59:12.175Z,8.85
2023-04-07T23:01:38.966Z,8.88
2023-04-07T23:04:06.074Z,8.59
2023-04-07T23:06:33.553Z,8.59
2023-04-07T23:09:00.600Z,8.72
2023-04-07T23:11:27.373Z,8.77
2023-04-07T23:13:55.163Z,8.81
2023-04-07T23:16:21.919Z,8.74
2023-04-07T23:18:48.864Z,8.78
2023-04-07T23:21:15.847Z,8.66
2023-04-07T23:23:42.519Z,8.81
2023-04-07T23:26:09.187Z,8.67
2023-04-07T23:28:36.038Z,8.64
2023-04-07T23:31:02.869Z,8.60
2023-04-07T23:33:31.773Z,8.57
2023-04-07T23:35:58.995Z,8.68
2023-04-07T23:38:26.123Z,8.60
2023-04-07T23:40:53.262Z,8.63
2023-04-07T23:43:20.142Z,8.69
2023-04-07T23:45:46.817Z,8.60
2023-04-07T23:48:13.702Z,8.43
2023-04-07T23:50:40.789Z,8.31
2023-04-07T23:53:07.514Z,8.23
2023-04-07T23:55:34.204Z,8.25
2023-04-07T23:58:01.212Z,8.23
